createdAt,value
2019-03-24T00:01:41.055Z,77.50
2019-03-24T00:04:07.214Z,78.50
2019-03-24T00:06:35.511Z,80.00
2019-03-24T00:09:05.949Z,80.40
2019-03-24T00:11:34.483Z,81.40
2019-03-24T00:14:02.697Z,81.40
2019-03-24T00:16:31.010Z,80.90
2019-03-24T00:18:59.356Z,80.90
2019-03-24T00:21:27.552Z,81.10
2019-03-24T00:23:55.858Z,81.10
2019-03-24T00:26:24.075Z,81.30
2019-03-24T00:28:52.467Z,81.60
2019-03-24T00:31:20.687Z,81.00
2019-03-24T00:33:49.024Z,81.10
2019-03-24T00:36:17.160Z,81.30
2019-03-24T00:38:45.560Z,81.20
2019-03-24T00:41:13.781Z,81.00
2019-03-24T00:43:42.246Z,81.50
2019-03-24T00:46:10.449Z,82.10
2019-03-24T00:48:38.748Z,82.40
2019-03-24T00:51:06.962Z,83.00
2019-03-24T00:53:35.164Z,82.80
2019-03-24T00:56:03.389Z,81.50
2019-03-24T00:58:31.689Z,81.10
2019-03-24T01:01:00.025Z,82.30
2019-03-24T01:03:28.333Z,82.50
2019-03-24T01:05:56.616Z,82.40
2019-03-24T01:08:24.891Z,82.10
2019-03-24T01:10:53.101Z,82.30
2019-03-24T01:13:21.473Z,82.40
2019-03-24T01:15:49.791Z,81.90
2019-03-24T01:18:18.202Z,81.70
2019-03-24T01:20:46.530Z,81.90
2019-03-24T01:23:14.756Z,81.40
2019-03-24T01:25:43.025Z,81.10
2019-03-24T01:28:11.341Z,81.70
2019-03-24T01:30:39.648Z,81.30
2019-03-24T01:33:07.852Z,81.70
2019-03-24T01:35:36.027Z,81.70
2019-03-24T01:38:04.344Z,81.40
2019-03-24T01:40:32.632Z,80.80
2019-03-24T01:43:00.851Z,80.60
2019-03-24T01:45:29.199Z,80.90
2019-03-24T01:48:00.017Z,82.00
2019-03-24T01:50:30.577Z,82.90
2019-03-24T01:52:58.793Z,82.70
2019-03-24T01:55:27.084Z,83.20
2019-03-24T01:57:55.451Z,82.70
2019-03-24T02:00:23.821Z,83.20
2019-03-24T02:02:52.189Z,83.50
2019-03-24T02:05:20.378Z,83.50
2019-03-24T02:07:48.711Z,83.50
2019-03-24T02:10:17.142Z,82.90
2019-03-24T02:12:45.449Z,83.10
2019-03-24T02:15:14.017Z,82.40
2019-03-24T02:17:42.426Z,81.70
2019-03-24T02:20:11.017Z,82.30
2019-03-24T02:22:39.726Z,82.70
2019-03-24T02:25:08.116Z,82.90
2019-03-24T02:27:36.889Z,83.30
2019-03-24T02:30:05.728Z,82.60
2019-03-24T02:32:34.528Z,82.40
2019-03-24T02:35:02.857Z,81.90
2019-03-24T02:37:32.790Z,81.00
2019-03-24T02:40:01.100Z,81.30
2019-03-24T02:42:31.062Z,81.50
2019-03-24T02:44:59.359Z,82.20
2019-03-24T02:47:27.544Z,82.90
2019-03-24T02:49:55.773Z,83.30
2019-03-24T02:52:24.119Z,82.80
2019-03-24T02:54:52.325Z,84.20
2019-03-24T02:57:20.584Z,84.80
2019-03-24T02:59:48.821Z,84.80
2019-03-24T03:02:17.091Z,84.20
2019-03-24T03:04:45.473Z,83.40
2019-03-24T03:07:13.749Z,82.90
2019-03-24T03:09:42.119Z,83.00
2019-03-24T03:12:10.387Z,82.30
2019-03-24T03:14:38.582Z,83.90
2019-03-24T03:17:06.871Z,84.10
2019-03-24T03:19:35.070Z,83.10
2019-03-24T03:22:03.342Z,82.90
2019-03-24T03:24:31.654Z,84.10
2019-03-24T03:26:59.766Z,83.90
2019-03-24T03:29:28.054Z,84.40
2019-03-24T03:31:56.437Z,84.40
2019-03-24T03:34:24.784Z,84.40
2019-03-24T03:36:53.070Z,84.70
2019-03-24T03:39:21.420Z,84.90
2019-03-24T03:41:49.638Z,85.60
2019-03-24T03:44:18.224Z,85.20
2019-03-24T03:46:52.342Z,84.60
2019-03-24T03:49:16.518Z,84.70
2019-03-24T03:51:44.733Z,84.70
2019-03-24T03:54:13.013Z,84.40
2019-03-24T03:56:41.208Z,83.80
2019-03-24T03:59:09.625Z,84.30
2019-03-24T04:01:37.718Z,85.10
2019-03-24T04:04:06.298Z,84.50
2019-03-24T04:06:34.489Z,83.70
2019-03-24T04:09:04.410Z,85.00
2019-03-24T04:11:32.901Z,85.10
2019-03-24T04:14:01.201Z,85.50
2019-03-24T04:16:29.669Z,85.40
2019-03-24T04:18:57.926Z,85.80
2019-03-24T04:21:26.125Z,85.50
2019-03-24T04:23:54.406Z,87.10
2019-03-24T04:26:22.645Z,87.50
2019-03-24T04:28:50.929Z,88.00
2019-03-24T04:31:19.118Z,87.90
2019-03-24T04:33:47.410Z,86.80
2019-03-24T04:36:15.682Z,86.60
2019-03-24T04:38:43.904Z,86.80
2019-03-24T04:41:12.186Z,86.00
2019-03-24T04:43:40.413Z,86.30
2019-03-24T04:46:08.877Z,86.30
2019-03-24T04:48:37.287Z,86.60
2019-03-24T04:51:05.453Z,87.40
2019-03-24T04:53:33.787Z,87.20
2019-03-24T04:56:02.074Z,86.80
2019-03-24T04:58:30.295Z,87.40
2019-03-24T05:00:58.771Z,87.00
2019-03-24T05:03:27.493Z,86.40
2019-03-24T05:05:55.949Z,87.50
2019-03-24T05:08:24.904Z,87.60
2019-03-24T05:10:53.201Z,88.30
2019-03-24T05:13:21.389Z,89.20
2019-03-24T05:15:49.665Z,89.70
2019-03-24T05:18:17.894Z,89.50
2019-03-24T05:20:46.161Z,88.40
2019-03-24T05:23:14.560Z,87.50
2019-03-24T05:25:42.810Z,86.20
2019-03-24T05:28:11.090Z,85.80
2019-03-24T05:30:39.276Z,86.00
2019-03-24T05:33:07.661Z,85.60
2019-03-24T05:35:35.861Z,85.60
2019-03-24T05:38:04.118Z,85.00
2019-03-24T05:40:32.329Z,84.70
2019-03-24T05:43:00.590Z,84.30
2019-03-24T05:45:28.805Z,84.30
2019-03-24T05:47:56.982Z,84.20
2019-03-24T05:50:25.268Z,83.90
2019-03-24T05:52:53.564Z,83.90
2019-03-24T05:55:21.774Z,84.50
2019-03-24T05:57:50.175Z,84.40
2019-03-24T06:00:18.401Z,84.40
2019-03-24T06:02:46.725Z,84.40
2019-03-24T06:05:15.136Z,85.60
2019-03-24T06:07:43.420Z,87.00
2019-03-24T06:10:11.778Z,88.90
2019-03-24T06:12:40.508Z,89.20
2019-03-24T06:15:09.327Z,89.50
2019-03-24T06:17:47.394Z,88.80
2019-03-24T06:20:08.313Z,88.60
2019-03-24T06:22:37.000Z,88.80
2019-03-24T06:25:05.680Z,90.00
2019-03-24T06:27:33.903Z,90.00
2019-03-24T06:30:02.285Z,89.90
2019-03-24T06:32:32.093Z,90.30
2019-03-24T06:35:00.495Z,90.10
2019-03-24T06:37:28.721Z,89.80
2019-03-24T06:39:57.019Z,89.40
2019-03-24T06:42:25.243Z,89.70
2019-03-24T06:44:53.597Z,89.80
2019-03-24T06:47:21.815Z,90.00
2019-03-24T06:49:50.169Z,90.40
2019-03-24T06:52:18.824Z,90.20
2019-03-24T06:54:47.041Z,90.00
2019-03-24T06:57:16.895Z,89.30
2019-03-24T06:59:45.444Z,89.00
2019-03-24T07:02:13.656Z,88.60
2019-03-24T07:04:41.893Z,88.50
2019-03-24T07:07:10.215Z,89.50
2019-03-24T07:09:38.404Z,90.30
2019-03-24T07:12:06.676Z,90.90
2019-03-24T07:14:34.854Z,91.50
2019-03-24T07:17:03.039Z,91.70
2019-03-24T07:19:31.236Z,91.00
2019-03-24T07:21:59.557Z,90.80
2019-03-24T07:24:27.774Z,90.50
2019-03-24T07:26:56.124Z,90.40
2019-03-24T07:29:24.394Z,91.00
2019-03-24T07:31:52.678Z,91.50
2019-03-24T07:34:20.995Z,92.00
2019-03-24T07:36:49.431Z,91.60
2019-03-24T07:39:17.761Z,91.80
2019-03-24T07:41:45.966Z,91.90
2019-03-24T07:44:14.264Z,92.60
2019-03-24T07:46:42.501Z,92.90
2019-03-24T07:49:10.897Z,93.00
2019-03-24T07:51:39.162Z,92.90
2019-03-24T07:54:07.702Z,93.20
2019-03-24T07:56:36.229Z,92.90
2019-03-24T07:59:04.542Z,93.00
2019-03-24T08:01:32.809Z,93.20
2019-03-24T08:04:01.127Z,92.70
2019-03-24T08:06:29.326Z,93.10
2019-03-24T08:08:57.647Z,92.90
2019-03-24T08:11:25.888Z,92.80
2019-03-24T08:13:54.272Z,93.00
2019-03-24T08:16:22.425Z,92.90
2019-03-24T08:18:50.704Z,92.80
2019-03-24T08:21:18.922Z,92.60
2019-03-24T08:23:47.303Z,93.00
2019-03-24T08:26:15.584Z,92.60
2019-03-24T08:28:44.015Z,92.70
2019-03-24T08:31:12.226Z,92.60
2019-03-24T08:33:40.561Z,92.80
2019-03-24T08:36:08.843Z,92.20
2019-03-24T08:38:37.178Z,92.00
2019-03-24T08:41:05.545Z,92.20
2019-03-24T08:43:34.246Z,92.60
2019-03-24T08:46:03.176Z,92.80
2019-03-24T08:48:40.967Z,92.40
2019-03-24T08:51:04.857Z,92.50
2019-03-24T08:53:33.156Z,92.90
2019-03-24T08:56:01.584Z,93.50
2019-03-24T08:58:30.085Z,93.10
2019-03-24T09:00:58.393Z,92.50
2019-03-24T09:03:26.727Z,92.80
2019-03-24T09:05:55.032Z,92.00
2019-03-24T09:08:23.293Z,92.20
2019-03-24T09:10:51.637Z,91.40
2019-03-24T09:13:19.913Z,91.50
2019-03-24T09:15:48.540Z,90.90
2019-03-24T09:18:16.785Z,90.70
2019-03-24T09:20:45.110Z,89.50
2019-03-24T09:23:13.355Z,90.10
2019-03-24T09:25:41.628Z,88.00
2019-03-24T09:28:09.902Z,87.10
2019-03-24T09:30:39.322Z,85.60
2019-03-24T09:33:07.730Z,82.70
2019-03-24T09:35:36.220Z,81.40
2019-03-24T09:38:05.226Z,80.90
2019-03-24T09:40:34.178Z,81.10
2019-03-24T09:43:04.747Z,79.80
2019-03-24T09:45:33.330Z,80.70
2019-03-24T09:48:05.134Z,80.00
2019-03-24T09:50:33.607Z,82.30
2019-03-24T09:53:01.966Z,81.50
2019-03-24T09:55:30.737Z,81.90
2019-03-24T09:57:59.054Z,82.90
2019-03-24T10:00:27.360Z,82.30
2019-03-24T10:02:55.875Z,82.70
2019-03-24T10:05:24.140Z,83.70
2019-03-24T10:07:52.530Z,84.50
2019-03-24T10:10:22.650Z,84.10
2019-03-24T10:12:54.157Z,84.70
2019-03-24T10:15:22.600Z,83.50
2019-03-24T10:17:51.406Z,83.60
2019-03-24T10:20:20.554Z,85.90
2019-03-24T10:22:55.210Z,84.10
2019-03-24T10:25:23.834Z,85.30
2019-03-24T10:27:52.623Z,85.80
2019-03-24T10:30:23.317Z,84.20
2019-03-24T10:32:52.503Z,86.20
2019-03-24T10:35:20.882Z,83.00
2019-03-24T10:37:49.179Z,82.30
2019-03-24T10:40:27.913Z,82.70
2019-03-24T10:42:48.154Z,83.80
2019-03-24T10:45:16.579Z,84.20
2019-03-24T10:47:45.008Z,82.20
2019-03-24T10:50:19.430Z,81.30
2019-03-24T10:52:50.465Z,82.30
2019-03-24T10:55:27.557Z,82.70
2019-03-24T10:57:55.922Z,82.40
2019-03-24T11:00:37.264Z,82.50
2019-03-24T11:03:09.826Z,82.40
2019-03-24T11:05:47.361Z,81.10
2019-03-24T11:08:15.826Z,81.30
2019-03-24T11:10:44.078Z,80.90
2019-03-24T11:13:12.330Z,80.40
2019-03-24T11:15:40.674Z,77.90
2019-03-24T11:18:08.993Z,77.50
2019-03-24T11:20:37.294Z,77.70
2019-03-24T11:23:05.564Z,78.50
2019-03-24T11:25:33.907Z,77.30
2019-03-24T11:28:02.224Z,76.20
2019-03-24T11:30:30.670Z,75.90
2019-03-24T11:32:59.078Z,74.70
2019-03-24T11:35:27.414Z,76.10
2019-03-24T11:37:59.338Z,76.20
2019-03-24T11:40:30.597Z,76.20
2019-03-24T11:42:58.837Z,76.70
2019-03-24T11:45:27.622Z,75.10
2019-03-24T11:47:56.014Z,73.30
2019-03-24T11:50:24.364Z,73.10
2019-03-24T11:52:52.726Z,73.30
2019-03-24T11:55:21.080Z,72.50
2019-03-24T11:57:51.442Z,73.20
2019-03-24T12:00:27.899Z,71.90
2019-03-24T12:02:57.738Z,71.80
2019-03-24T12:05:26.082Z,71.30
2019-03-24T12:07:54.374Z,71.80
2019-03-24T12:10:22.714Z,72.30
2019-03-24T12:12:50.962Z,72.40
2019-03-24T12:15:19.220Z,72.40
2019-03-24T12:17:47.543Z,69.70
2019-03-24T12:20:15.938Z,70.20
2019-03-24T12:22:44.370Z,69.90
2019-03-24T12:25:12.511Z,69.80
2019-03-24T12:27:40.959Z,71.60
2019-03-24T12:30:09.495Z,68.30
2019-03-24T12:32:38.444Z,67.00
2019-03-24T12:35:07.068Z,69.10
2019-03-24T12:37:35.628Z,67.10
2019-03-24T12:40:04.289Z,68.10
2019-03-24T12:42:34.297Z,67.60
2019-03-24T12:45:02.852Z,68.50
2019-03-24T12:47:32.794Z,67.70
2019-03-24T12:50:08.658Z,67.20
2019-03-24T12:52:32.901Z,66.10
2019-03-24T12:55:01.051Z,65.30
2019-03-24T12:57:30.301Z,66.40
2019-03-24T12:59:58.588Z,65.90
2019-03-24T13:02:26.941Z,66.10
2019-03-24T13:04:55.162Z,66.20
2019-03-24T13:07:23.396Z,65.30
2019-03-24T13:09:51.802Z,64.50
2019-03-24T13:12:20.101Z,65.00
2019-03-24T13:14:49.498Z,65.60
2019-03-24T13:17:17.826Z,64.20
2019-03-24T13:19:46.209Z,63.00
2019-03-24T13:22:14.457Z,62.60
2019-03-24T13:24:42.827Z,63.20
2019-03-24T13:27:11.057Z,62.30
2019-03-24T13:29:39.507Z,62.60
2019-03-24T13:32:07.779Z,63.50
2019-03-24T13:34:36.092Z,62.80
2019-03-24T13:37:04.430Z,62.80
2019-03-24T13:39:32.902Z,63.10
2019-03-24T13:42:01.030Z,63.10
2019-03-24T13:44:29.343Z,62.70
2019-03-24T13:46:57.642Z,62.50
2019-03-24T13:49:25.970Z,64.10
2019-03-24T13:51:54.194Z,64.70
2019-03-24T13:54:22.680Z,63.10
2019-03-24T13:56:51.039Z,62.40
2019-03-24T13:59:19.377Z,64.10
2019-03-24T14:01:47.734Z,63.90
2019-03-24T14:04:16.130Z,63.70
2019-03-24T14:06:44.339Z,63.60
2019-03-24T14:09:12.901Z,62.60
2019-03-24T14:11:41.323Z,64.50
2019-03-24T14:14:09.582Z,65.00
2019-03-24T14:16:37.835Z,64.90
2019-03-24T14:19:06.991Z,63.80
2019-03-24T14:21:35.434Z,65.40
2019-03-24T14:24:03.681Z,65.80
2019-03-24T14:26:32.175Z,65.00
2019-03-24T14:29:00.430Z,65.80
2019-03-24T14:31:28.720Z,65.20
2019-03-24T14:33:57.003Z,64.00
2019-03-24T14:36:25.336Z,63.40
2019-03-24T14:38:53.588Z,64.90
2019-03-24T14:41:21.918Z,63.70
2019-03-24T14:43:53.063Z,63.90
2019-03-24T14:46:21.517Z,63.50
2019-03-24T14:48:49.741Z,64.20
2019-03-24T14:51:18.077Z,64.40
2019-03-24T14:53:46.499Z,64.20
2019-03-24T14:56:14.973Z,65.00
2019-03-24T14:58:43.329Z,66.50
2019-03-24T15:01:11.695Z,64.50
2019-03-24T15:03:40.012Z,64.60
2019-03-24T15:06:08.601Z,65.00
2019-03-24T15:08:36.980Z,64.70
2019-03-24T15:11:05.313Z,65.50
2019-03-24T15:13:33.789Z,65.40
2019-03-24T15:16:02.095Z,65.00
2019-03-24T15:18:30.506Z,65.30
2019-03-24T15:21:05.485Z,64.90
2019-03-24T15:23:29.112Z,66.00
2019-03-24T15:26:00.182Z,66.90
2019-03-24T15:28:28.848Z,66.30
2019-03-24T15:30:57.082Z,65.90
2019-03-24T15:33:25.477Z,65.00
2019-03-24T15:35:53.862Z,64.20
2019-03-24T15:38:22.304Z,65.10
2019-03-24T15:40:50.627Z,65.00
2019-03-24T15:43:19.077Z,65.30
2019-03-24T15:45:47.633Z,65.20
2019-03-24T15:48:16.039Z,65.20
2019-03-24T15:50:44.460Z,66.00
2019-03-24T15:53:12.959Z,66.30
2019-03-24T15:55:41.391Z,67.40
2019-03-24T15:58:09.799Z,66.80
2019-03-24T16:00:45.729Z,67.20
2019-03-24T16:03:14.930Z,66.70
2019-03-24T16:05:46.177Z,67.20
2019-03-24T16:08:14.533Z,68.10
2019-03-24T16:10:42.969Z,67.40
2019-03-24T16:13:11.269Z,67.70
2019-03-24T16:15:39.829Z,67.20
2019-03-24T16:18:08.385Z,67.40
2019-03-24T16:20:36.826Z,67.10
2019-03-24T16:23:05.279Z,67.60
2019-03-24T16:25:34.046Z,68.10
2019-03-24T16:28:02.579Z,67.80
2019-03-24T16:30:31.138Z,67.50
2019-03-24T16:32:59.580Z,67.90
2019-03-24T16:35:28.069Z,68.70
2019-03-24T16:37:56.249Z,69.40
2019-03-24T16:40:24.585Z,68.60
2019-03-24T16:42:53.081Z,68.70
2019-03-24T16:45:21.598Z,69.20
2019-03-24T16:47:50.253Z,69.20
2019-03-24T16:50:18.674Z,69.60
2019-03-24T16:52:47.025Z,69.70
2019-03-24T16:55:15.338Z,70.20
2019-03-24T16:57:43.733Z,70.50
2019-03-24T17:00:12.373Z,71.30
2019-03-24T17:02:41.076Z,71.10
2019-03-24T17:05:09.568Z,71.50
2019-03-24T17:07:38.068Z,71.60
2019-03-24T17:10:06.929Z,71.70
2019-03-24T17:12:35.618Z,72.00
2019-03-24T17:15:04.606Z,72.60
2019-03-24T17:17:33.949Z,72.50
2019-03-24T17:20:02.200Z,72.50
2019-03-24T17:22:32.105Z,72.80
2019-03-24T17:25:00.405Z,72.90
2019-03-24T17:27:28.889Z,73.00
2019-03-24T17:29:57.242Z,72.80
2019-03-24T17:32:25.578Z,72.60
2019-03-24T17:34:53.874Z,72.70
2019-03-24T17:37:22.354Z,72.10
2019-03-24T17:39:50.906Z,72.30
2019-03-24T17:42:19.260Z,72.50
2019-03-24T17:44:47.556Z,72.30
2019-03-24T17:47:15.987Z,72.10
2019-03-24T17:49:44.374Z,72.20
2019-03-24T17:52:13.216Z,71.90
2019-03-24T17:54:41.604Z,72.30
2019-03-24T17:57:10.018Z,72.30
2019-03-24T17:59:41.232Z,72.30
2019-03-24T18:02:14.316Z,72.50
2019-03-24T18:04:40.034Z,72.80
2019-03-24T18:07:08.367Z,72.70
2019-03-24T18:09:36.807Z,72.30
2019-03-24T18:12:05.397Z,72.00
2019-03-24T18:14:33.720Z,72.50
2019-03-24T18:17:02.101Z,72.40
2019-03-24T18:19:30.386Z,72.70
2019-03-24T18:21:58.805Z,72.70
2019-03-24T18:24:27.190Z,73.00
2019-03-24T18:26:55.554Z,72.40
2019-03-24T18:29:23.976Z,72.80
2019-03-24T18:31:52.264Z,73.20
2019-03-24T18:34:20.836Z,73.30
2019-03-24T18:36:49.224Z,73.80
2019-03-24T18:39:17.973Z,73.80
2019-03-24T18:41:46.413Z,73.90
2019-03-24T18:44:14.864Z,74.30
2019-03-24T18:46:43.242Z,74.10
2019-03-24T18:49:11.705Z,74.80
2019-03-24T18:51:40.002Z,74.60
2019-03-24T18:54:08.402Z,74.60
2019-03-24T18:56:36.736Z,75.00
2019-03-24T18:59:05.290Z,74.80
2019-03-24T19:01:33.827Z,74.70
2019-03-24T19:04:02.220Z,74.70
2019-03-24T19:06:30.693Z,74.60
2019-03-24T19:08:59.103Z,75.00
2019-03-24T19:11:27.466Z,74.80
2019-03-24T19:13:55.856Z,74.70
2019-03-24T19:16:24.669Z,74.60
2019-03-24T19:18:53.252Z,74.50
2019-03-24T19:21:21.765Z,74.30
2019-03-24T19:23:50.297Z,75.10
2019-03-24T19:26:18.673Z,74.40
2019-03-24T19:28:47.283Z,74.10
2019-03-24T19:31:15.655Z,74.00
2019-03-24T19:33:44.053Z,74.00
2019-03-24T19:36:12.535Z,73.90
2019-03-24T19:38:41.444Z,73.80
2019-03-24T19:41:10.179Z,74.10
2019-03-24T19:43:39.845Z,74.30
2019-03-24T19:46:08.436Z,74.50
2019-03-24T19:48:36.730Z,74.50
2019-03-24T19:51:07.035Z,74.60
2019-03-24T19:53:35.245Z,74.90
2019-03-24T19:56:03.615Z,74.70
2019-03-24T19:58:31.851Z,74.90
2019-03-24T20:01:00.277Z,75.10
2019-03-24T20:03:28.660Z,75.30
2019-03-24T20:05:57.036Z,74.90
2019-03-24T20:08:25.416Z,75.00
2019-03-24T20:10:53.700Z,75.10
2019-03-24T20:13:22.079Z,75.50
2019-03-24T20:15:50.345Z,75.20
2019-03-24T20:18:18.696Z,75.60
2019-03-24T20:20:47.146Z,75.90
2019-03-24T20:23:15.518Z,75.90
2019-03-24T20:25:43.866Z,76.50
2019-03-24T20:28:12.213Z,76.60
2019-03-24T20:30:40.495Z,76.70
2019-03-24T20:33:09.107Z,76.30
2019-03-24T20:35:37.338Z,76.40
2019-03-24T20:38:05.645Z,76.10
2019-03-24T20:40:33.938Z,76.30
2019-03-24T20:43:02.498Z,76.40
2019-03-24T20:45:30.782Z,76.50
2019-03-24T20:47:59.394Z,76.20
2019-03-24T20:50:27.811Z,75.80
2019-03-24T20:53:04.140Z,76.00
2019-03-24T20:55:26.402Z,75.90
2019-03-24T20:57:54.800Z,75.70
2019-03-24T21:00:32.328Z,75.70
2019-03-24T21:03:02.342Z,75.30
2019-03-24T21:05:32.228Z,75.90
2019-03-24T21:08:00.512Z,76.10
2019-03-24T21:10:28.888Z,76.40
2019-03-24T21:12:57.197Z,76.60
2019-03-24T21:15:25.608Z,76.60
2019-03-24T21:17:53.975Z,76.80
2019-03-24T21:20:22.309Z,76.50
2019-03-24T21:22:50.680Z,76.80
2019-03-24T21:25:19.041Z,77.00
2019-03-24T21:27:47.402Z,77.70
2019-03-24T21:30:17.797Z,78.00
2019-03-24T21:32:47.698Z,78.70
2019-03-24T21:35:16.069Z,78.80
2019-03-24T21:37:44.416Z,79.10
2019-03-24T21:40:12.776Z,79.70
2019-03-24T21:42:41.151Z,79.70
2019-03-24T21:45:09.691Z,79.90
2019-03-24T21:47:39.693Z,79.60
2019-03-24T21:50:08.070Z,80.00
2019-03-24T21:52:36.376Z,79.80
2019-03-24T21:55:05.086Z,79.90
2019-03-24T21:57:33.683Z,79.90
2019-03-24T22:00:02.121Z,79.90
2019-03-24T22:02:32.041Z,80.40
2019-03-24T22:05:00.366Z,80.60
2019-03-24T22:07:28.765Z,80.60
2019-03-24T22:09:57.001Z,80.60
2019-03-24T22:12:25.321Z,80.70
2019-03-24T22:14:53.561Z,81.00
2019-03-24T22:17:21.989Z,80.80
2019-03-24T22:19:50.243Z,81.60
2019-03-24T22:22:18.785Z,81.30
2019-03-24T22:24:47.081Z,81.00
2019-03-24T22:27:15.446Z,80.80
2019-03-24T22:29:43.690Z,81.20
2019-03-24T22:32:12.025Z,81.20
2019-03-24T22:34:40.337Z,81.00
2019-03-24T22:37:15.772Z,80.80
2019-03-24T22:39:39.078Z,80.70
2019-03-24T22:42:07.317Z,80.60
2019-03-24T22:44:35.677Z,81.50
2019-03-24T22:47:04.022Z,81.40
2019-03-24T22:49:32.407Z,81.30
2019-03-24T22:52:07.161Z,81.50
2019-03-24T22:54:31.190Z,81.20
2019-03-24T22:56:59.645Z,81.00
2019-03-24T22:59:28.173Z,81.40
2019-03-24T23:01:56.316Z,81.20
2019-03-24T23:04:24.715Z,80.80
2019-03-24T23:06:53.222Z,80.70
2019-03-24T23:09:21.623Z,80.90
2019-03-24T23:11:49.851Z,80.10
2019-03-24T23:14:18.420Z,80.10
2019-03-24T23:16:46.654Z,79.40
2019-03-24T23:19:15.093Z,79.70
2019-03-24T23:21:43.288Z,79.20
2019-03-24T23:24:15.788Z,78.90
2019-03-24T23:26:41.590Z,78.50
2019-03-24T23:29:09.878Z,80.00
2019-03-24T23:31:38.221Z,80.30
2019-03-24T23:34:06.679Z,78.50
2019-03-24T23:36:35.061Z,78.10
2019-03-24T23:39:04.292Z,77.60
2019-03-24T23:41:32.773Z,78.90
2019-03-24T23:44:01.021Z,77.70
2019-03-24T23:46:29.411Z,77.00
2019-03-24T23:48:57.726Z,76.80
2019-03-24T23:51:26.112Z,76.60
2019-03-24T23:53:54.410Z,76.40
2019-03-24T23:56:22.682Z,76.00
2019-03-24T23:58:50.900Z,76.80
